Time;durP1;ratioP1;P1;durP2;ratioP2;P2;SDS_P1;SDS_P2;PMS_P1;PMS_P2;Temp;Humidity;BMP_temperature;BMP_pressure;BME280_temperature;BME280_humidity;BME280_pressure;Samples;Min_cycle;Max_cycle;Signal;HPM_P1;HPM_P2
2023/04/02 00:00:18;;;;;;;;;;;6.80;99.90;;;;;;5083441;28;20044;-62
2023/04/02 00:03:04;;;;;;;12.48;6.07;;;6.80;99.90;;;;;;5057664;28;20023;-64
2023/04/02 00:05:49;;;;;;;12.45;5.78;;;6.80;99.90;;;;;;5060226;28;20037;-65
2023/04/02 00:08:21;;;;;;;12.32;6.13;;;6.70;99.90;;;;;;5074045;28;20466;-65
2023/04/02 00:10:58;;;;;;;13.52;5.90;;;6.70;99.90;;;;;;5081518;28;20157;-64
2023/04/02 00:13:35;;;;;;;13.00;6.32;;;6.70;99.90;;;;;;5057996;28;20047;-64
2023/04/02 00:16:05;;;;;;;11.80;6.45;;;6.70;99.90;;;;;;5058752;28;20049;-65
2023/04/02 00:18:32;;;;;;;10.73;6.15;;;6.70;99.90;;;;;;5058460;28;20039;-64
2023/04/02 00:21:12;;;;;;;9.98;6.20;;;6.60;99.90;;;;;;5077737;28;20111;-64
2023/04/02 00:23:42;;;;;;;10.02;6.20;;;6.60;99.90;;;;;;5063577;28;20065;-64
2023/04/02 00:26:30;;;;;;;15.63;6.28;;;6.60;99.90;;;;;;5071737;28;20036;-64
2023/04/02 00:28:59;;;;;;;11.10;5.78;;;6.50;99.90;;;;;;5064806;28;20041;-64
2023/04/02 00:31:26;;;;;;;14.50;6.90;;;6.50;99.90;;;;;;5066837;28;20043;-65
2023/04/02 00:33:54;;;;;;;11.77;6.40;;;6.50;99.90;;;;;;5078022;28;20422;-64
2023/04/02 00:36:29;;;;;;;12.05;6.28;;;6.50;99.90;;;;;;5056315;28;20409;-62
2023/04/02 00:38:57;;;;;;;11.63;6.28;;;6.50;99.90;;;;;;5070666;28;20045;-64
2023/04/02 00:41:28;;;;;;;10.18;6.43;;;6.50;99.90;;;;;;5056584;28;20036;-64
2023/04/02 00:43:57;;;;;;;11.13;6.22;;;6.50;99.90;;;;;;5065417;28;20078;-64
2023/04/02 00:46:29;;;;;;;10.82;6.25;;;6.40;99.90;;;;;;5087307;28;20025;-63
2023/04/02 00:49:13;;;;;;;9.50;5.40;;;6.40;99.90;;;;;;5073022;28;20502;-64
2023/04/02 00:51:46;;;;;;;11.43;6.50;;;6.40;99.90;;;;;;5071708;28;20040;-64
2023/04/02 00:54:14;;;;;;;10.75;6.38;;;6.40;99.90;;;;;;5068446;28;20522;-63
2023/04/02 00:56:44;;;;;;;10.23;6.22;;;6.40;99.90;;;;;;5063295;28;20352;-64
2023/04/02 00:59:23;;;;;;;13.50;6.55;;;6.40;99.90;;;;;;5078684;28;20139;-63
2023/04/02 01:01:53;;;;;;;10.45;5.93;;;6.30;99.90;;;;;;5066701;28;20128;-64
2023/04/02 01:04:33;;;;;;;9.18;5.95;;;6.30;99.90;;;;;;5062952;28;20040;-63
2023/04/02 01:07:03;;;;;;;10.32;6.03;;;6.30;99.90;;;;;;5078868;28;20043;-63
2023/04/02 01:09:48;;;;;;;10.65;5.85;;;6.30;99.90;;;;;;5070683;28;20048;-63
2023/04/02 01:12:28;;;;;;;8.38;5.88;;;6.30;99.90;;;;;;5073938;28;20083;-64
2023/04/02 01:15:24;;;;;;;10.98;6.03;;;6.30;99.90;;;;;;5074816;28;20185;-64
2023/04/02 01:18:08;;;;;;;12.25;6.38;;;6.20;99.90;;;;;;5063408;28;20154;-64
2023/04/02 01:21:01;;;;;;;10.32;5.97;;;6.20;99.90;;;;;;5058282;28;20467;-63
2023/04/02 01:23:57;;;;;;;10.82;6.30;;;6.20;99.90;;;;;;5055465;28;20251;-64
2023/04/02 01:26:45;;;;;;;10.00;6.15;;;6.20;99.90;;;;;;5060372;28;20145;-63
2023/04/02 01:29:20;;;;;;;11.05;5.75;;;6.10;99.90;;;;;;5067002;28;20055;-62
2023/04/02 01:31:47;;;;;;;10.27;5.90;;;6.10;99.90;;;;;;5068358;28;20052;-63
2023/04/02 01:34:17;;;;;;;11.20;5.88;;;6.10;99.90;;;;;;5067688;28;20049;-62
2023/04/02 01:37:08;;;;;;;8.27;5.28;;;6.10;99.90;;;;;;5056949;28;20049;-62
2023/04/02 01:39:42;;;;;;;8.85;5.65;;;6.10;99.90;;;;;;5069726;28;20044;-63
2023/04/02 01:42:31;;;;;;;8.90;5.90;;;6.10;99.90;;;;;;5058728;28;20048;-65
2023/04/02 01:45:09;;;;;;;10.77;5.22;;;6.10;99.90;;;;;;5059468;28;20045;-65
2023/04/02 01:47:37;;;;;;;9.07;5.45;;;6.00;99.90;;;;;;5064577;28;20076;-64
2023/04/02 01:50:21;;;;;;;9.73;4.90;;;6.00;99.90;;;;;;5074159;28;20041;-64
2023/04/02 01:52:54;;;;;;;8.43;5.30;;;6.00;99.90;;;;;;5061329;28;20090;-64
2023/04/02 01:55:48;;;;;;;10.25;5.07;;;5.90;99.90;;;;;;5066204;28;20064;-64
2023/04/02 01:58:20;;;;;;;11.52;5.53;;;5.90;99.90;;;;;;5063351;28;20076;-63
2023/04/02 02:00:51;;;;;;;12.45;5.40;;;5.90;99.90;;;;;;5058563;28;20033;-64
2023/04/02 02:03:18;;;;;;;9.10;5.03;;;5.80;99.90;;;;;;5063304;28;20045;-65
2023/04/02 02:05:45;;;;;;;8.35;5.20;;;5.80;99.90;;;;;;5060477;28;20037;-62
2023/04/02 02:08:25;;;;;;;9.77;5.00;;;5.70;99.90;;;;;;5057010;28;20554;-64
2023/04/02 02:10:51;;;;;;;9.20;4.80;;;5.70;99.90;;;;;;5059188;28;20368;-65
2023/04/02 02:13:17;;;;;;;9.18;4.68;;;5.70;99.90;;;;;;5054431;28;20098;-64
2023/04/02 02:15:43;;;;;;;10.80;4.43;;;5.60;99.90;;;;;;5060118;28;20037;-62
2023/04/02 02:18:12;;;;;;;7.38;4.60;;;5.60;99.90;;;;;;5061577;28;20044;-64
2023/04/02 02:20:37;;;;;;;8.65;4.80;;;5.60;99.90;;;;;;5065846;28;20056;-65
2023/04/02 02:23:04;;;;;;;10.93;4.45;;;5.50;99.90;;;;;;5063731;28;20041;-64
2023/04/02 02:25:32;;;;;;;10.30;4.90;;;5.40;99.90;;;;;;5059393;28;20087;-64
2023/04/02 02:28:08;;;;;;;10.90;4.63;;;5.40;99.90;;;;;;5066327;28;20033;-64
2023/04/02 02:30:46;;;;;;;8.63;4.25;;;5.40;99.90;;;;;;5058181;28;20036;-64
2023/04/02 02:33:24;;;;;;;12.18;4.53;;;5.30;99.90;;;;;;5064227;28;20422;-64
2023/04/02 02:36:01;;;;;;;8.13;4.80;;;5.30;99.90;;;;;;5063039;28;20455;-62
2023/04/02 02:38:33;;;;;;;6.90;3.97;;;5.30;99.90;;;;;;5053901;28;20089;-64
2023/04/02 02:41:21;;;;;;;10.53;4.40;;;5.20;99.90;;;;;;5060826;28;20037;-63
2023/04/02 02:44:07;;;;;;;7.95;4.25;;;5.20;99.90;;;;;;5057339;28;20279;-63
2023/04/02 02:46:34;;;;;;;8.90;4.07;;;5.20;99.90;;;;;;5059383;28;20140;-63
2023/04/02 02:49:03;;;;;;;10.27;4.18;;;5.10;99.90;;;;;;5070042;28;20054;-63
2023/04/02 02:51:41;;;;;;;9.80;4.00;;;5.10;99.90;;;;;;5063472;28;20110;-63
2023/04/02 02:54:41;;;;;;;11.15;3.83;;;5.00;99.90;;;;;;5064339;28;20029;-63
2023/04/02 02:57:10;;;;;;;5.88;3.55;;;5.00;99.90;;;;;;5066343;28;20044;-63
2023/04/02 02:59:37;;;;;;;8.45;3.70;;;4.90;99.90;;;;;;5070099;28;20048;-67
2023/04/02 03:02:04;;;;;;;10.45;3.85;;;4.90;99.90;;;;;;5060149;28;20044;-63
2023/04/02 03:04:34;;;;;;;10.25;3.72;;;4.80;99.90;;;;;;5068600;28;20041;-62
2023/04/02 03:07:00;;;;;;;7.15;3.75;;;4.80;99.90;;;;;;5065742;28;20209;-68
2023/04/02 03:09:53;;;;;;;10.57;3.90;;;4.70;99.90;;;;;;5064303;28;20048;-64
2023/04/02 03:12:42;;;;;;;8.82;3.95;;;4.70;99.90;;;;;;5071077;28;20517;-62
2023/04/02 03:15:32;;;;;;;8.40;3.78;;;4.70;99.90;;;;;;5048706;28;20403;-63
2023/04/02 03:18:18;;;;;;;6.57;3.45;;;4.60;99.90;;;;;;5058040;28;20070;-63
2023/04/02 03:20:54;;;;;;;9.05;4.10;;;4.60;99.90;;;;;;5067230;28;20054;-63
2023/04/02 03:23:34;;;;;;;8.70;3.63;;;4.60;99.90;;;;;;5065896;28;20111;-63
2023/04/02 03:26:16;;;;;;;10.95;3.92;;;4.50;99.90;;;;;;5060751;28;20423;-63
2023/04/02 03:28:57;;;;;;;9.52;4.00;;;4.50;99.90;;;;;;5062493;28;20557;-63
2023/04/02 03:31:32;;;;;;;10.57;3.70;;;4.50;99.90;;;;;;5077658;28;20094;-63
2023/04/02 03:37:44;;;;;;;10.70;4.00;;;4.40;99.90;;;;;;5052072;28;20039;-63
2023/04/02 03:40:19;;;;;;;10.98;3.88;;;4.30;99.90;;;;;;5074172;28;20044;-63
2023/04/02 03:42:50;;;;;;;10.07;3.63;;;4.30;99.90;;;;;;5072805;28;20036;-63
2023/04/02 03:45:23;;;;;;;7.38;3.45;;;4.30;99.90;;;;;;5060111;28;20506;-63
2023/04/02 03:47:52;;;;;;;10.32;3.75;;;4.30;99.90;;;;;;5051549;28;20044;-63
2023/04/02 03:50:27;;;;;;;7.97;4.03;;;4.20;99.90;;;;;;5066816;28;20040;-63
2023/04/02 03:52:53;;;;;;;8.60;3.80;;;4.40;99.90;;;;;;5065613;28;20040;-63
2023/04/02 03:55:24;;;;;;;7.68;3.28;;;4.10;99.90;;;;;;5057676;28;20422;-63
2023/04/02 03:58:05;;;;;;;6.20;3.30;;;4.10;99.90;;;;;;5042355;28;20037;-63
2023/04/02 04:00:44;;;;;;;10.48;3.95;;;4.10;99.90;;;;;;5063164;28;20041;-63
2023/04/02 04:03:18;;;;;;;7.65;3.85;;;4.10;99.90;;;;;;5061787;28;20037;-63
2023/04/02 04:05:50;;;;;;;7.28;3.50;;;4.10;99.90;;;;;;5072405;28;20047;-63
2023/04/02 04:08:20;;;;;;;;;;;4.10;99.90;;;;;;5063879;28;20083;-64
2023/04/02 04:10:51;;;;;;;8.30;3.72;;;4.10;99.90;;;;;;5072629;28;19916;-63
2023/04/02 04:13:28;;;;;;;7.03;3.75;;;4.00;99.90;;;;;;5069826;28;20076;-63
2023/04/02 04:16:08;;;;;;;7.78;3.60;;;4.00;99.90;;;;;;5066091;28;20554;-63
2023/04/02 04:18:51;;;;;;;6.25;3.28;;;4.10;99.90;;;;;;5062002;28;20036;-63
2023/04/02 04:21:35;;;;;;;13.18;4.18;;;4.10;99.90;;;;;;5059125;28;20438;-63
2023/04/02 04:24:11;;;;;;;8.02;3.58;;;4.10;99.90;;;;;;5069753;28;20041;-63
2023/04/02 04:26:52;;;;;;;9.80;3.85;;;4.10;99.90;;;;;;5071069;28;20097;-63
2023/04/02 04:29:44;;;;;;;11.68;3.90;;;4.10;99.90;;;;;;5074518;28;20123;-63
2023/04/02 04:32:49;;;;;;;9.03;3.60;;;4.10;99.90;;;;;;5070381;28;20044;-63
2023/04/02 04:35:23;;;;;;;8.85;4.15;;;4.10;99.90;;;;;;5056644;28;20291;-63
2023/04/02 04:38:14;;;;;;;9.05;3.90;;;4.00;99.90;;;;;;5054955;28;20035;-62
2023/04/02 04:41:04;;;;;;;9.05;3.65;;;4.00;99.90;;;;;;5065090;28;20080;-63
2023/04/02 04:43:37;;;;;;;9.27;3.45;;;4.10;99.90;;;;;;5071101;28;20437;-63
2023/04/02 04:46:08;;;;;;;7.00;3.20;;;4.00;99.90;;;;;;5065072;28;20028;-63
2023/04/02 04:48:42;;;;;;;8.82;3.45;;;4.00;99.90;;;;;;5065351;28;20040;-63
2023/04/02 04:51:18;;;;;;;9.55;3.35;;;4.00;99.90;;;;;;5067036;28;20048;-63
2023/04/02 04:53:48;;;;;;;9.82;3.60;;;4.00;99.90;;;;;;5071356;28;20032;-63
2023/04/02 04:56:17;;;;;;;8.13;3.25;;;4.00;99.90;;;;;;5069147;28;20041;-62
2023/04/02 04:58:47;;;;;;;8.57;3.40;;;4.00;99.90;;;;;;5065511;28;20484;-63
2023/04/02 05:01:33;;;;;;;5.95;2.90;;;4.00;99.90;;;;;;5068214;28;20090;-63
2023/04/02 05:04:34;;;;;;;8.07;3.40;;;4.00;99.90;;;;;;5067882;28;20185;-63
2023/04/02 05:07:09;;;;;;;7.78;3.15;;;4.00;99.90;;;;;;5068149;28;20041;-62
2023/04/02 05:09:37;;;;;;;8.32;3.03;;;3.90;99.90;;;;;;5056563;28;20110;-63
2023/04/02 05:12:26;;;;;;;8.13;3.55;;;4.00;99.90;;;;;;5071457;28;20068;-63
2023/04/02 05:15:07;;;;;;;10.68;3.17;;;4.50;99.90;;;;;;5072518;28;20035;-63
2023/04/02 05:17:45;;;;;;;9.15;3.20;;;4.00;99.90;;;;;;5071082;28;20459;-63
2023/04/02 05:20:27;;;;;;;7.30;3.25;;;4.00;99.90;;;;;;5057748;28;20033;-63
2023/04/02 05:23:15;;;;;;;10.55;3.03;;;4.00;99.90;;;;;;5062024;28;20091;-63
2023/04/02 05:26:01;;;;;;;7.07;3.13;;;4.00;99.90;;;;;;5059943;28;20468;-63
2023/04/02 05:28:47;;;;;;;8.40;3.28;;;4.00;99.90;;;;;;5063815;28;20050;-63
2023/04/02 05:31:24;;;;;;;5.70;2.88;;;3.90;99.90;;;;;;5077264;28;20174;-63
2023/04/02 05:33:52;;;;;;;5.78;2.70;;;3.90;99.90;;;;;;5066768;28;20394;-63
2023/04/02 05:36:25;;;;;;;7.00;2.60;;;3.90;99.90;;;;;;5059998;28;20033;-63
2023/04/02 05:38:52;;;;;;;9.20;2.63;;;3.80;99.90;;;;;;5057512;28;20537;-62
2023/04/02 05:41:29;;;;;;;5.93;2.78;;;3.80;99.90;;;;;;5060554;28;20045;-62
2023/04/02 05:44:21;;;;;;;5.22;2.60;;;3.80;99.90;;;;;;5081336;28;20074;-62
2023/04/02 05:47:00;;;;;;;8.48;2.80;;;3.70;99.90;;;;;;5072688;28;20064;-64
2023/04/02 05:49:49;;;;;;;7.63;2.78;;;3.70;99.90;;;;;;5066444;28;20040;-61
2023/04/02 05:52:31;;;;;;;6.43;2.85;;;3.70;99.90;;;;;;5074223;28;20075;-62
2023/04/02 05:55:32;;;;;;;6.03;2.90;;;3.70;99.90;;;;;;5072435;28;20120;-64
2023/04/02 05:58:12;;;;;;;7.47;3.08;;;3.70;99.90;;;;;;5070960;28;20123;-62
2023/04/02 06:00:38;;;;;;;7.65;3.33;;;3.70;99.90;;;;;;5064404;28;20044;-61
2023/04/02 06:03:36;;;;;;;6.60;2.70;;;3.80;99.90;;;;;;5062687;28;20041;-63
2023/04/02 06:06:11;;;;;;;6.63;2.90;;;3.80;99.90;;;;;;5072622;28;20040;-65
2023/04/02 06:08:41;;;;;;;8.73;3.28;;;3.80;99.90;;;;;;5054035;28;20557;-63
2023/04/02 06:11:15;;;;;;;7.57;2.95;;;3.80;99.90;;;;;;5060073;28;20045;-65
2023/04/02 06:13:40;;;;;;;7.93;2.97;;;3.80;99.90;;;;;;5056596;28;20443;-63
2023/04/02 06:16:08;;;;;;;9.13;3.05;;;3.80;99.90;;;;;;5071200;28;20076;-65
2023/04/02 06:18:35;;;;;;;7.75;3.70;;;3.80;99.90;;;;;;5062151;28;20102;-66
2023/04/02 06:21:02;;;;;;;5.82;2.90;;;3.90;99.90;;;;;;5058067;28;20458;-63
2023/04/02 06:23:43;;;;;;;8.15;3.00;;;3.90;99.90;;;;;;5058025;28;20031;-64
2023/04/02 06:26:38;;;;;;;10.98;3.00;;;3.90;99.90;;;;;;5057194;28;20062;-64
2023/04/02 06:29:12;;;;;;;9.25;2.72;;;3.90;99.90;;;;;;5064470;28;20070;-63
2023/04/02 06:31:44;;;;;;;6.70;3.00;;;3.90;99.90;;;;;;5064951;28;20036;-63
2023/04/02 06:34:19;;;;;;;8.57;3.20;;;3.90;99.90;;;;;;5068878;28;20040;-66
2023/04/02 06:36:46;;;;;;;8.65;3.00;;;3.90;99.90;;;;;;5064143;28;20040;-63
2023/04/02 06:39:19;;;;;;;4.90;2.08;;;3.90;99.90;;;;;;5064373;28;20040;-63
2023/04/02 06:41:45;;;;;;;5.53;2.38;;;4.00;99.90;;;;;;5068569;28;20079;-63
2023/04/02 06:44:21;;;;;;;9.23;2.72;;;4.00;99.90;;;;;;5077699;28;20128;-63
2023/04/02 06:46:59;;;;;;;7.35;2.28;;;4.00;99.90;;;;;;5061855;28;20037;-64
2023/04/02 06:49:40;;;;;;;11.27;5.00;;;4.10;99.90;;;;;;5062559;28;20033;-64
2023/04/02 06:52:19;;;;;;;8.65;3.80;;;4.10;99.90;;;;;;5071727;28;20243;-62
2023/04/02 06:54:46;;;;;;;6.68;2.60;;;4.10;99.90;;;;;;5072097;28;20044;-63
2023/04/02 06:57:12;;;;;;;8.00;2.38;;;4.10;99.90;;;;;;5059101;28;20040;-63
2023/04/02 06:59:38;;;;;;;5.63;2.10;;;4.10;99.90;;;;;;5061324;28;20119;-62
2023/04/02 07:02:23;;;;;;;7.18;2.28;;;4.10;99.90;;;;;;5069802;28;20525;-63
2023/04/02 07:04:49;;;;;;;11.88;5.80;;;4.10;99.90;;;;;;5056545;28;20050;-64
2023/04/02 07:07:14;;;;;;;10.88;6.43;;;4.20;99.90;;;;;;5081064;28;20545;-63
2023/04/02 07:09:41;;;;;;;16.60;8.88;;;4.20;99.90;;;;;;5069186;28;20391;-65
2023/04/02 07:12:13;;;;;;;13.57;7.78;;;4.20;99.90;;;;;;5062106;28;20294;-62
2023/04/02 07:14:39;;;;;;;30.23;15.27;;;4.20;99.90;;;;;;5061566;28;20130;-66
2023/04/02 07:17:04;;;;;;;13.27;6.97;;;4.20;99.90;;;;;;5072947;28;20115;-62
2023/04/02 07:19:30;;;;;;;9.13;3.95;;;4.20;99.90;;;;;;5062303;28;20051;-63
2023/04/02 07:21:55;;;;;;;8.00;3.50;;;4.20;99.90;;;;;;5058258;28;20047;-63
2023/04/02 07:24:21;;;;;;;7.38;2.90;;;4.20;99.90;;;;;;5055414;28;20447;-63
2023/04/02 07:26:47;;;;;;;6.20;3.20;;;4.30;99.90;;;;;;5048764;28;20036;-64
2023/04/02 07:29:16;;;;;;;9.80;3.70;;;4.30;99.90;;;;;;5056119;28;20495;-65
2023/04/02 07:31:42;;;;;;;6.57;3.15;;;4.30;99.90;;;;;;5066545;28;20040;-65
2023/04/02 07:34:08;;;;;;;5.32;3.10;;;4.40;99.90;;;;;;5070053;28;20476;-63
2023/04/02 07:36:34;;;;;;;9.52;4.10;;;4.40;99.90;;;;;;5060959;28;20547;-64
2023/04/02 07:38:59;;;;;;;9.75;3.83;;;4.40;99.90;;;;;;5078580;28;20163;-63
2023/04/02 07:41:26;;;;;;;7.90;3.63;;;4.30;99.90;;;;;;5059060;28;20038;-65
2023/04/02 07:43:52;;;;;;;5.32;2.88;;;4.40;99.90;;;;;;5063960;28;20055;-63
2023/04/02 07:46:19;;;;;;;7.28;3.17;;;4.30;99.90;;;;;;5053221;28;20036;-65
2023/04/02 07:48:45;;;;;;;5.97;2.35;;;4.30;99.90;;;;;;5067664;28;20043;-65
2023/04/02 07:51:19;;;;;;;7.07;2.92;;;4.40;99.90;;;;;;5061210;28;20055;-65
2023/04/02 07:53:48;;;;;;;6.63;2.42;;;4.40;99.90;;;;;;5063750;28;20115;-65
2023/04/02 07:56:15;;;;;;;9.32;2.40;;;4.40;99.90;;;;;;5052774;28;20079;-64
2023/04/02 07:58:41;;;;;;;6.65;2.53;;;4.30;99.90;;;;;;5057335;28;20048;-65
2023/04/02 08:01:24;;;;;;;9.15;3.05;;;4.30;99.90;;;;;;5058109;28;20037;-65
2023/04/02 08:03:50;;;;;;;;;;;4.30;99.90;;;;;;5054636;28;20028;-66
2023/04/02 08:06:16;;;;;;;6.88;2.30;;;4.30;99.90;;;;;;5060317;28;19917;-66
2023/04/02 08:08:42;;;;;;;8.38;2.33;;;4.20;99.90;;;;;;5057113;28;20029;-65
2023/04/02 08:11:08;;;;;;;4.18;2.30;;;4.20;99.90;;;;;;5059150;28;20538;-66
2023/04/02 08:13:34;;;;;;;8.32;2.53;;;4.20;99.90;;;;;;5070908;28;20525;-63
2023/04/02 08:16:01;;;;;;;6.82;2.05;;;4.20;99.90;;;;;;5060103;28;20030;-63
2023/04/02 08:18:27;;;;;;;9.38;2.13;;;4.20;99.90;;;;;;5080800;28;20038;-62
2023/04/02 08:20:52;;;;;;;4.72;2.45;;;4.30;99.90;;;;;;5069290;28;20029;-65
2023/04/02 08:23:18;;;;;;;8.85;2.63;;;4.30;99.90;;;;;;5061595;28;20055;-63
2023/04/02 08:25:45;;;;;;;7.28;2.17;;;4.30;99.90;;;;;;5054031;28;20539;-63
2023/04/02 08:28:10;;;;;;;7.20;2.03;;;4.40;99.90;;;;;;5057005;28;20115;-64
2023/04/02 08:30:36;;;;;;;4.47;1.90;;;4.50;99.90;;;;;;5058241;28;20119;-63
2023/04/02 08:33:02;;;;;;;5.32;2.13;;;4.50;99.90;;;;;;5059329;28;20033;-63
2023/04/02 08:35:28;;;;;;;6.72;2.00;;;4.60;99.90;;;;;;5073323;28;20036;-62
2023/04/02 08:37:54;;;;;;;6.47;2.33;;;4.60;99.90;;;;;;5055379;28;20047;-63
2023/04/02 08:40:40;;;;;;;5.80;1.90;;;4.60;99.90;;;;;;5063085;28;20106;-63
2023/04/02 08:43:43;;;;;;;6.95;1.92;;;4.70;99.90;;;;;;5065321;28;20043;-63
2023/04/02 08:46:22;;;;;;;5.50;2.10;;;4.70;99.90;;;;;;5051560;28;20076;-64
2023/04/02 08:49:00;;;;;;;4.28;1.92;;;4.80;99.90;;;;;;5063788;28;20056;-64
2023/04/02 08:51:33;;;;;;;6.45;2.10;;;4.80;99.90;;;;;;5058064;28;20098;-63
2023/04/02 08:54:07;;;;;;;6.90;1.70;;;4.80;99.90;;;;;;5068535;28;20033;-63
2023/04/02 08:56:42;;;;;;;7.93;1.70;;;4.80;99.90;;;;;;5055362;28;20052;-63
2023/04/02 08:59:44;;;;;;;8.48;2.00;;;4.80;99.90;;;;;;5063373;28;20116;-63
2023/04/02 09:02:33;;;;;;;6.53;1.73;;;4.90;99.90;;;;;;5048178;28;20032;-63
2023/04/02 09:05:03;;;;;;;4.22;1.58;;;4.90;99.90;;;;;;5064917;28;20048;-63
2023/04/02 09:07:31;;;;;;;9.00;1.70;;;4.90;99.90;;;;;;5063615;28;20051;-64
2023/04/02 09:09:58;;;;;;;6.93;2.00;;;5.00;99.90;;;;;;5059312;28;20048;-63
2023/04/02 09:12:30;;;;;;;7.10;1.60;;;5.00;99.90;;;;;;5063983;28;20115;-63
2023/04/02 09:15:17;;;;;;;4.20;1.70;;;5.10;99.90;;;;;;5069662;28;20040;-65
2023/04/02 09:17:43;;;;;;;5.40;1.92;;;5.20;99.90;;;;;;5076775;28;20423;-63
2023/04/02 09:20:20;;;;;;;5.80;1.83;;;5.30;99.90;;;;;;5067848;28;20080;-64
2023/04/02 09:22:49;;;;;;;5.30;1.92;;;5.40;99.90;;;;;;5060300;28;20029;-65
2023/04/02 09:25:22;;;;;;;5.57;2.08;;;5.60;99.90;;;;;;5087127;22;20036;-76
2023/04/02 09:27:51;;;;;;;4.38;1.83;;;5.70;99.90;;;;;;5026898;28;20037;-77
2023/04/02 09:30:51;;;;;;;6.10;2.05;;;7.00;99.90;;;;;;5036352;28;20040;-77
2023/04/02 09:33:17;;;;;;;6.20;2.08;;;6.30;99.90;;;;;;5030226;28;20047;-76
2023/04/02 09:35:48;;;;;;;5.60;1.70;;;6.50;99.90;;;;;;5012137;28;20123;-76
2023/04/02 09:38:22;;;;;;;6.00;1.77;;;6.90;99.90;;;;;;5047170;28;20036;-76
2023/04/02 09:40:49;;;;;;;6.15;1.58;;;8.00;99.90;;;;;;5008267;28;20033;-78
2023/04/02 09:43:20;;;;;;;5.30;1.75;;;7.50;99.90;;;;;;5037565;28;20063;-78
2023/04/02 09:46:12;;;;;;;3.63;1.63;;;7.50;99.90;;;;;;5032849;28;20080;-77
2023/04/02 09:48:52;;;;;;;3.90;1.38;;;7.70;99.90;;;;;;5011925;28;20040;-78
2023/04/02 09:51:20;;;;;;;3.80;1.70;;;8.30;99.90;;;;;;5033767;28;20041;-79
2023/04/02 09:53:48;;;;;;;7.03;1.58;;;8.60;99.90;;;;;;5034683;28;20497;-77
2023/04/02 09:56:22;;;;;;;4.95;1.73;;;8.90;99.90;;;;;;5014844;28;20461;-79
2023/04/02 09:59:14;;;;;;;4.43;1.48;;;8.30;99.90;;;;;;5019976;28;20043;-80
2023/04/02 10:02:02;;;;;;;5.78;1.80;;;9.40;99.90;;;;;;5021775;28;20075;-79
2023/04/02 10:04:48;;;;;;;9.15;1.60;;;8.60;99.90;;;;;;5033092;28;20033;-78
2023/04/02 10:07:37;;;;;;;6.40;1.67;;;8.90;99.90;;;;;;5036928;28;20029;-78
2023/04/02 10:10:23;;;;;;;6.63;1.67;;;9.40;99.90;;;;;;5032279;28;20040;-79
2023/04/02 10:13:01;;;;;;;6.15;1.67;;;9.20;99.90;;;;;;5039353;28;20492;-79
2023/04/02 10:16:07;;;;;;;5.63;1.60;;;9.20;99.90;;;;;;5025757;28;20045;-79
2023/04/02 10:18:57;;;;;;;3.80;1.70;;;9.30;99.90;;;;;;5022607;28;20061;-78
2023/04/02 10:21:37;;;;;;;5.78;1.60;;;10.00;99.90;;;;;;5027708;28;20055;-80
2023/04/02 10:24:11;;;;;;;4.72;1.55;;;10.30;99.90;;;;;;5015318;28;20172;-78
2023/04/02 10:27:05;;;;;;;7.63;3.17;;;9.80;99.90;;;;;;5033504;28;20037;-78
2023/04/02 10:29:40;;;;;;;8.98;4.13;;;10.00;99.90;;;;;;5049413;28;20070;-78
2023/04/02 10:32:29;;;;;;;6.57;2.40;;;10.70;99.90;;;;;;5013637;28;20127;-76
2023/04/02 10:35:02;;;;;;;6.43;1.88;;;10.90;99.90;;;;;;5053312;28;20048;-79
2023/04/02 10:37:37;;;;;;;2.65;1.48;;;10.10;99.90;;;;;;5048822;28;20127;-78
2023/04/02 10:40:10;;;;;;;4.68;1.65;;;10.70;99.90;;;;;;5025201;28;20421;-79
2023/04/02 10:42:46;;;;;;;6.78;2.00;;;11.00;99.90;;;;;;5045471;28;20045;-77
2023/04/02 10:45:18;;;;;;;2.97;1.48;;;10.80;99.90;;;;;;5036201;28;20056;-77
2023/04/02 10:47:58;;;;;;;4.63;1.90;;;11.00;99.90;;;;;;5046369;28;20485;-78
2023/04/02 10:50:53;;;;;;;4.57;1.58;;;11.00;99.90;;;;;;5016284;28;20041;-77
2023/04/02 10:53:22;;;;;;;5.15;1.60;;;11.00;99.90;;;;;;5010056;28;20061;-78
2023/04/02 10:56:02;;;;;;;6.10;2.05;;;10.60;99.90;;;;;;5013475;28;20048;-78
2023/04/02 10:58:32;;;;;;;2.60;1.30;;;11.20;99.90;;;;;;5024855;28;20382;-79
2023/04/02 11:01:05;;;;;;;4.25;1.50;;;10.80;99.90;;;;;;5019046;28;20048;-78
2023/04/02 11:03:52;;;;;;;4.05;1.63;;;11.70;99.90;;;;;;5028856;28;20388;-81
2023/04/02 11:06:25;;;;;;;7.85;1.52;;;11.30;99.90;;;;;;5046696;28;20082;-78
2023/04/02 11:08:55;;;;;;;3.75;1.58;;;11.50;99.90;;;;;;5029182;28;20455;-77
2023/04/02 11:11:30;;;;;;;8.50;1.80;;;11.30;99.90;;;;;;5017319;28;20037;-78
2023/04/02 11:13:58;;;;;;;4.13;1.58;;;11.40;99.90;;;;;;5026903;28;20131;-77
2023/04/02 11:16:26;;;;;;;3.90;1.23;;;11.40;99.90;;;;;;5026441;28;20454;-78
2023/04/02 11:19:13;;;;;;;3.85;1.50;;;12.30;99.90;;;;;;5030307;28;20037;-78
2023/04/02 11:21:43;;;;;;;5.05;1.40;;;11.60;99.90;;;;;;5017065;28;20048;-78
2023/04/02 11:24:35;;;;;;;3.72;1.52;;;11.80;99.90;;;;;;5049347;28;20488;-78
2023/04/02 11:27:10;;;;;;;5.30;1.38;;;12.20;99.90;;;;;;5015937;28;20127;-78
2023/04/02 11:29:52;;;;;;;3.40;1.50;;;11.60;99.90;;;;;;5040935;28;20520;-77
2023/04/02 11:32:22;;;;;;;;;;;11.90;99.90;;;;;;5017822;28;20049;-80
2023/04/02 11:34:48;;;;;;;3.88;1.50;;;11.80;99.90;;;;;;5032283;28;19927;-79
2023/04/02 11:37:38;;;;;;;4.93;1.30;;;12.10;99.90;;;;;;5032213;28;20033;-78
2023/04/02 11:40:10;;;;;;;3.92;1.48;;;12.00;99.90;;;;;;5017434;28;20052;-79
2023/04/02 11:42:41;;;;;;;3.92;1.65;;;12.40;99.90;;;;;;5031550;28;20049;-78
2023/04/02 11:45:22;;;;;;;4.82;1.38;;;12.20;99.90;;;;;;5027005;28;20037;-78
2023/04/02 11:48:00;;;;;;;4.38;1.50;;;12.70;99.90;;;;;;5022517;28;20049;-78
2023/04/02 11:50:31;;;;;;;3.90;1.45;;;11.40;99.90;;;;;;5030639;28;20503;-77
2023/04/02 11:53:13;;;;;;;5.07;1.63;;;12.80;99.90;;;;;;5022576;28;20127;-78
2023/04/02 11:56:15;;;;;;;4.85;1.60;;;12.30;99.90;;;;;;5015710;28;20295;-78
2023/04/02 11:58:59;;;;;;;4.70;1.83;;;12.60;99.90;;;;;;5040695;28;20053;-78
2023/04/02 12:01:44;;;;;;;3.80;1.40;;;12.60;99.70;;;;;;5042667;28;20041;-78
2023/04/02 12:04:15;;;;;;;4.05;1.50;;;12.60;99.90;;;;;;5014682;28;20063;-78
2023/04/02 12:07:02;;;;;;;4.55;1.55;;;12.50;99.90;;;;;;5015478;28;20064;-78
2023/04/02 12:09:43;;;;;;;3.05;1.27;;;12.40;99.90;;;;;;5022763;28;20073;-77
2023/04/02 12:12:30;;;;;;;6.13;1.30;;;12.40;99.90;;;;;;5046162;28;20041;-78
2023/04/02 12:14:57;;;;;;;4.18;1.70;;;12.50;99.90;;;;;;5014868;28;20049;-77
2023/04/02 12:17:35;;;;;;;5.22;1.60;;;13.40;99.90;;;;;;5032290;28;20385;-77
2023/04/02 12:20:08;;;;;;;5.35;1.50;;;12.60;99.90;;;;;;5043123;28;20034;-77
2023/04/02 12:22:45;;;;;;;3.58;1.48;;;13.30;99.90;;;;;;5016743;28;20524;-78
2023/04/02 12:25:32;;;;;;;4.93;1.58;;;12.50;99.90;;;;;;5053590;28;20060;-77
2023/04/02 12:28:17;;;;;;;3.03;1.30;;;12.60;99.70;;;;;;5066813;28;20040;-78
2023/04/02 12:30:44;;;;;;;6.57;1.58;;;12.60;99.90;;;;;;5019931;28;20051;-77
2023/04/02 12:33:19;;;;;;;3.10;1.25;;;13.40;99.90;;;;;;5028855;28;20044;-77
2023/04/02 12:35:53;;;;;;;4.35;1.50;;;12.80;99.90;;;;;;5024828;28;20091;-78
2023/04/02 12:38:29;;;;;;;2.78;1.50;;;12.70;99.90;;;;;;5043166;28;20118;-77
2023/04/02 12:41:02;;;;;;;4.75;1.50;;;12.80;99.90;;;;;;5027144;28;20412;-77
2023/04/02 12:43:32;;;;;;;3.72;1.60;;;12.70;99.90;;;;;;5020875;28;20162;-77
2023/04/02 12:46:00;;;;;;;4.57;1.80;;;12.80;99.90;;;;;;5053485;28;20040;-77
2023/04/02 12:48:28;;;;;;;3.55;1.42;;;12.40;99.90;;;;;;5028919;28;20041;-78
2023/04/02 12:50:55;;;;;;;3.63;1.40;;;12.20;99.90;;;;;;5035775;28;20045;-77
2023/04/02 12:53:34;;;;;;;3.42;1.48;;;12.10;99.90;;;;;;5027619;28;20048;-77
2023/04/02 12:56:01;;;;;;;6.28;1.42;;;12.70;99.90;;;;;;5043702;28;20048;-77
2023/04/02 12:58:36;;;;;;;3.83;1.30;;;13.20;99.90;;;;;;5033396;28;20041;-77
2023/04/02 13:01:32;;;;;;;3.40;1.40;;;12.70;99.50;;;;;;5035596;28;20110;-77
2023/04/02 13:04:11;;;;;;;3.83;1.20;;;12.60;98.30;;;;;;5004482;28;20056;-77
2023/04/02 13:06:39;;;;;;;2.60;1.27;;;12.60;99.50;;;;;;5027615;28;20048;-78
2023/04/02 13:09:23;;;;;;;4.25;1.63;;;12.70;99.60;;;;;;5053282;28;20040;-77
2023/04/02 13:11:49;;;;;;;3.47;1.63;;;12.70;99.70;;;;;;5053497;28;20116;-78
2023/04/02 13:14:20;;;;;;;4.95;1.27;;;13.30;99.80;;;;;;5017234;28;20113;-79
2023/04/02 13:16:46;;;;;;;3.63;1.30;;;12.70;99.30;;;;;;5018172;28;20067;-77
2023/04/02 13:19:28;;;;;;;3.28;1.33;;;13.30;99.60;;;;;;5017904;28;20048;-77
2023/04/02 13:21:56;;;;;;;5.78;1.55;;;12.70;98.80;;;;;;5027013;28;20049;-77
2023/04/02 13:24:25;;;;;;;4.78;1.27;;;13.10;99.00;;;;;;5053697;28;20105;-78
2023/04/02 13:26:57;;;;;;;3.10;1.20;;;13.20;99.10;;;;;;5050952;28;20041;-77
2023/04/02 13:29:32;;;;;;;4.15;1.45;;;12.70;98.90;;;;;;5012499;28;20493;-77
2023/04/02 13:32:00;;;;;;;3.03;1.30;;;12.70;98.40;;;;;;5013460;28;20065;-77
2023/04/02 13:34:26;;;;;;;4.25;1.25;;;12.20;98.60;;;;;;5026998;28;20051;-77
2023/04/02 13:36:52;;;;;;;4.40;1.40;;;13.20;99.20;;;;;;5018999;28;20094;-77
2023/04/02 13:39:19;;;;;;;4.95;1.30;;;13.20;99.20;;;;;;5028298;28;20045;-77